White, South Dakota
Current Conditions -  °F | °C
As of 10:33 AM on Friday 21 Nov 2014 (Local Time) from KCNB Reporting Station
Clear Clear  
Wind Chill: 15°   Ceiling: Unl
Heat Index: 28°   Visibility: 10mi
Dew Point: 20°   Wind: 18mph
Humidity: 73%   Direction: 200°SSW
Pressure: 29.96"   Gusts: 33mph
Location:  44.43°N, 96.65°W
Report Text: KCNB 211633Z AUTO 20016G29KT 10SM CLR M02/M07 A2996 RMK AO2 T10251068
Loading
Personal Weather Stations






























Interactive Weather Map New forecast layout! Learn more

10-Day Weather Forecast

Advertisements
Track Severe Weather on mobile